sensor_id;sensor_type;location;lat;lon;timestamp;temperature;humidity
20422;DHT22;10370;53.102;18.034;2024-01-15T00:02:13;1.60;99.90
20422;DHT22;10370;53.102;18.034;2024-01-15T00:07:36;1.60;99.90
20422;DHT22;10370;53.102;18.034;2024-01-15T00:18:41;1.50;99.90
20422;DHT22;10370;53.102;18.034;2024-01-15T00:24:04;1.60;99.90
20422;DHT22;10370;53.102;18.034;2024-01-15T00:29:27;1.60;99.90
20422;DHT22;10370;53.102;18.034;2024-01-15T00:34:49;1.60;99.90
20422;DHT22;10370;53.102;18.034;2024-01-15T00:40:19;1.60;99.90
20422;DHT22;10370;53.102;18.034;2024-01-15T00:45:41;1.60;99.90
20422;DHT22;10370;53.102;18.034;2024-01-15T00:51:04;1.60;99.90
20422;DHT22;10370;53.102;18.034;2024-01-15T00:56:27;1.60;99.90
20422;DHT22;10370;53.102;18.034;2024-01-15T01:01:52;1.60;99.90
20422;DHT22;10370;53.102;18.034;2024-01-15T01:07:17;1.60;99.90
20422;DHT22;10370;53.102;18.034;2024-01-15T01:12:54;1.60;99.90
20422;DHT22;10370;53.102;18.034;2024-01-15T01:18:16;1.60;99.90
20422;DHT22;10370;53.102;18.034;2024-01-15T01:23:46;1.60;99.90
20422;DHT22;10370;53.102;18.034;2024-01-15T01:29:09;1.60;99.90
20422;DHT22;10370;53.102;18.034;2024-01-15T01:34:39;1.70;99.90
20422;DHT22;10370;53.102;18.034;2024-01-15T01:40:03;1.60;99.90
20422;DHT22;10370;53.102;18.034;2024-01-15T01:45:25;1.60;99.90
20422;DHT22;10370;53.102;18.034;2024-01-15T01:50:48;1.60;99.90
20422;DHT22;10370;53.102;18.034;2024-01-15T01:56:10;1.60;99.90
20422;DHT22;10370;53.102;18.034;2024-01-15T02:01:54;1.60;99.90
20422;DHT22;10370;53.102;18.034;2024-01-15T02:07:20;1.50;99.90
20422;DHT22;10370;53.102;18.034;2024-01-15T02:12:43;1.60;99.90
20422;DHT22;10370;53.102;18.034;2024-01-15T02:18:12;1.60;99.90
20422;DHT22;10370;53.102;18.034;2024-01-15T02:23:53;1.60;99.90
20422;DHT22;10370;53.102;18.034;2024-01-15T02:29:19;1.50;99.90
20422;DHT22;10370;53.102;18.034;2024-01-15T02:34:55;1.60;99.90
20422;DHT22;10370;53.102;18.034;2024-01-15T02:40:21;1.60;99.90
20422;DHT22;10370;53.102;18.034;2024-01-15T02:45:44;1.60;99.90
20422;DHT22;10370;53.102;18.034;2024-01-15T02:51:08;1.50;99.90
20422;DHT22;10370;53.102;18.034;2024-01-15T02:56:36;1.40;99.90
20422;DHT22;10370;53.102;18.034;2024-01-15T03:01:59;1.40;99.90
20422;DHT22;10370;53.102;18.034;2024-01-15T03:07:21;1.50;99.90
20422;DHT22;10370;53.102;18.034;2024-01-15T03:12:50;1.50;99.90
20422;DHT22;10370;53.102;18.034;2024-01-15T03:18:12;1.50;99.90
20422;DHT22;10370;53.102;18.034;2024-01-15T03:23:35;1.40;99.90
20422;DHT22;10370;53.102;18.034;2024-01-15T03:29:01;1.40;99.90
20422;DHT22;10370;53.102;18.034;2024-01-15T03:34:23;1.40;99.90
20422;DHT22;10370;53.102;18.034;2024-01-15T03:39:46;1.40;99.90
20422;DHT22;10370;53.102;18.034;2024-01-15T03:45:09;1.40;99.90
20422;DHT22;10370;53.102;18.034;2024-01-15T03:50:31;1.30;99.90
20422;DHT22;10370;53.102;18.034;2024-01-15T03:55:54;1.30;99.90
20422;DHT22;10370;53.102;18.034;2024-01-15T04:01:16;1.30;99.90
20422;DHT22;10370;53.102;18.034;2024-01-15T04:06:42;1.20;99.90
20422;DHT22;10370;53.102;18.034;2024-01-15T04:12:05;1.20;99.90
20422;DHT22;10370;53.102;18.034;2024-01-15T04:17:28;1.20;99.90
20422;DHT22;10370;53.102;18.034;2024-01-15T04:22:55;1.20;99.90
20422;DHT22;10370;53.102;18.034;2024-01-15T04:28:18;1.20;99.90
20422;DHT22;10370;53.102;18.034;2024-01-15T04:33:43;1.20;99.90
20422;DHT22;10370;53.102;18.034;2024-01-15T04:39:06;1.20;99.90
20422;DHT22;10370;53.102;18.034;2024-01-15T04:44:29;1.20;99.90
20422;DHT22;10370;53.102;18.034;2024-01-15T04:49:52;1.20;99.90
20422;DHT22;10370;53.102;18.034;2024-01-15T04:55:23;1.20;99.90
20422;DHT22;10370;53.102;18.034;2024-01-15T05:00:48;1.20;99.90
20422;DHT22;10370;53.102;18.034;2024-01-15T05:06:17;1.10;99.90
20422;DHT22;10370;53.102;18.034;2024-01-15T05:11:40;1.10;99.90
20422;DHT22;10370;53.102;18.034;2024-01-15T05:17:02;1.10;99.90
20422;DHT22;10370;53.102;18.034;2024-01-15T05:22:25;1.00;99.90
20422;DHT22;10370;53.102;18.034;2024-01-15T05:27:48;0.90;99.90
20422;DHT22;10370;53.102;18.034;2024-01-15T05:33:17;0.90;99.90
20422;DHT22;10370;53.102;18.034;2024-01-15T05:38:45;0.90;99.90
20422;DHT22;10370;53.102;18.034;2024-01-15T05:44:08;0.90;99.90
20422;DHT22;10370;53.102;18.034;2024-01-15T05:49:37;1.00;99.90
20422;DHT22;10370;53.102;18.034;2024-01-15T05:55:00;1.00;99.90
20422;DHT22;10370;53.102;18.034;2024-01-15T06:00:23;1.00;99.90
20422;DHT22;10370;53.102;18.034;2024-01-15T06:05:48;1.00;99.90
20422;DHT22;10370;53.102;18.034;2024-01-15T06:11:13;1.00;99.90
20422;DHT22;10370;53.102;18.034;2024-01-15T06:16:45;1.00;99.90
20422;DHT22;10370;53.102;18.034;2024-01-15T06:22:08;1.10;99.90
20422;DHT22;10370;53.102;18.034;2024-01-15T06:27:30;1.00;99.90
20422;DHT22;10370;53.102;18.034;2024-01-15T06:32:53;1.10;99.90
20422;DHT22;10370;53.102;18.034;2024-01-15T06:38:19;1.10;99.90
20422;DHT22;10370;53.102;18.034;2024-01-15T06:43:42;1.10;99.90
20422;DHT22;10370;53.102;18.034;2024-01-15T06:49:05;1.10;99.90
20422;DHT22;10370;53.102;18.034;2024-01-15T06:54:31;1.00;99.90
20422;DHT22;10370;53.102;18.034;2024-01-15T06:59:54;1.10;99.90
20422;DHT22;10370;53.102;18.034;2024-01-15T07:05:17;1.10;99.90
20422;DHT22;10370;53.102;18.034;2024-01-15T07:10:55;1.10;99.90
20422;DHT22;10370;53.102;18.034;2024-01-15T07:16:22;1.10;99.90
20422;DHT22;10370;53.102;18.034;2024-01-15T07:21:55;1.10;99.90
20422;DHT22;10370;53.102;18.034;2024-01-15T07:27:18;1.20;99.90
20422;DHT22;10370;53.102;18.034;2024-01-15T07:32:41;1.20;99.90
20422;DHT22;10370;53.102;18.034;2024-01-15T07:38:10;1.20;99.90
20422;DHT22;10370;53.102;18.034;2024-01-15T07:43:34;1.10;99.90
20422;DHT22;10370;53.102;18.034;2024-01-15T07:48:57;1.10;99.90
20422;DHT22;10370;53.102;18.034;2024-01-15T07:54:20;1.20;99.90
20422;DHT22;10370;53.102;18.034;2024-01-15T07:59:42;1.20;99.90
20422;DHT22;10370;53.102;18.034;2024-01-15T08:05:05;1.20;99.90
20422;DHT22;10370;53.102;18.034;2024-01-15T08:10:31;1.20;99.90
20422;DHT22;10370;53.102;18.034;2024-01-15T08:15:56;1.30;99.90
20422;DHT22;10370;53.102;18.034;2024-01-15T08:21:22;1.40;99.90
20422;DHT22;10370;53.102;18.034;2024-01-15T08:26:45;1.30;99.90
20422;DHT22;10370;53.102;18.034;2024-01-15T08:32:08;1.40;99.90
20422;DHT22;10370;53.102;18.034;2024-01-15T08:37:45;1.40;99.90
20422;DHT22;10370;53.102;18.034;2024-01-15T08:43:30;1.50;99.90
20422;DHT22;10370;53.102;18.034;2024-01-15T08:49:01;1.50;99.90
20422;DHT22;10370;53.102;18.034;2024-01-15T08:54:25;1.50;99.90
20422;DHT22;10370;53.102;18.034;2024-01-15T08:59:48;1.50;99.90
20422;DHT22;10370;53.102;18.034;2024-01-15T09:05:12;1.50;99.90
20422;DHT22;10370;53.102;18.034;2024-01-15T09:10:40;1.50;99.90
20422;DHT22;10370;53.102;18.034;2024-01-15T09:16:04;1.60;99.90
20422;DHT22;10370;53.102;18.034;2024-01-15T09:21:27;1.60;99.90
20422;DHT22;10370;53.102;18.034;2024-01-15T09:26:50;1.60;99.90
20422;DHT22;10370;53.102;18.034;2024-01-15T09:32:13;1.60;99.90
20422;DHT22;10370;53.102;18.034;2024-01-15T09:37:42;1.60;99.90
20422;DHT22;10370;53.102;18.034;2024-01-15T09:43:08;1.60;99.90
20422;DHT22;10370;53.102;18.034;2024-01-15T09:48:31;1.60;99.90
20422;DHT22;10370;53.102;18.034;2024-01-15T09:53:57;1.60;99.90
20422;DHT22;10370;53.102;18.034;2024-01-15T09:59:22;1.60;99.90
20422;DHT22;10370;53.102;18.034;2024-01-15T10:04:47;1.70;99.90
20422;DHT22;10370;53.102;18.034;2024-01-15T10:10:11;1.80;99.90
20422;DHT22;10370;53.102;18.034;2024-01-15T10:15:34;1.80;99.90
20422;DHT22;10370;53.102;18.034;2024-01-15T10:21:00;1.80;99.90
20422;DHT22;10370;53.102;18.034;2024-01-15T10:26:25;1.80;99.90
20422;DHT22;10370;53.102;18.034;2024-01-15T10:31:48;1.70;99.90
20422;DHT22;10370;53.102;18.034;2024-01-15T10:37:11;1.70;99.90
20422;DHT22;10370;53.102;18.034;2024-01-15T10:42:34;1.80;99.90
20422;DHT22;10370;53.102;18.034;2024-01-15T10:47:58;1.90;99.90
20422;DHT22;10370;53.102;18.034;2024-01-15T10:53:23;2.00;99.90
20422;DHT22;10370;53.102;18.034;2024-01-15T10:58:47;2.00;99.90
20422;DHT22;10370;53.102;18.034;2024-01-15T11:04:12;1.90;99.90
20422;DHT22;10370;53.102;18.034;2024-01-15T11:09:35;1.80;99.90
20422;DHT22;10370;53.102;18.034;2024-01-15T11:15:03;1.90;99.90
20422;DHT22;10370;53.102;18.034;2024-01-15T11:20:32;2.00;99.90
20422;DHT22;10370;53.102;18.034;2024-01-15T11:25:55;2.00;99.90
20422;DHT22;10370;53.102;18.034;2024-01-15T11:31:18;2.10;99.90
20422;DHT22;10370;53.102;18.034;2024-01-15T11:42:16;2.40;99.90
20422;DHT22;10370;53.102;18.034;2024-01-15T11:48:07;2.30;99.90
20422;DHT22;10370;53.102;18.034;2024-01-15T11:53:37;2.20;99.90
20422;DHT22;10370;53.102;18.034;2024-01-15T11:59:03;2.20;99.90
20422;DHT22;10370;53.102;18.034;2024-01-15T12:04:26;2.00;99.90
20422;DHT22;10370;53.102;18.034;2024-01-15T12:09:49;2.00;99.90
20422;DHT22;10370;53.102;18.034;2024-01-15T12:15:15;2.00;99.90
20422;DHT22;10370;53.102;18.034;2024-01-15T12:20:39;2.00;99.90
20422;DHT22;10370;53.102;18.034;2024-01-15T12:26:03;2.00;99.90
20422;DHT22;10370;53.102;18.034;2024-01-15T12:31:26;1.80;99.90
20422;DHT22;10370;53.102;18.034;2024-01-15T12:36:50;1.70;99.90
20422;DHT22;10370;53.102;18.034;2024-01-15T12:42:16;1.70;99.90
20422;DHT22;10370;53.102;18.034;2024-01-15T12:47:41;1.60;99.90
20422;DHT22;10370;53.102;18.034;2024-01-15T12:53:04;1.60;99.90
20422;DHT22;10370;53.102;18.034;2024-01-15T12:58:27;1.60;99.90
20422;DHT22;10370;53.102;18.034;2024-01-15T13:03:50;1.60;99.90
20422;DHT22;10370;53.102;18.034;2024-01-15T13:09:13;1.60;99.90
20422;DHT22;10370;53.102;18.034;2024-01-15T13:14:37;1.60;99.90
20422;DHT22;10370;53.102;18.034;2024-01-15T13:20:00;1.70;99.90
20422;DHT22;10370;53.102;18.034;2024-01-15T13:25:23;1.80;99.90
20422;DHT22;10370;53.102;18.034;2024-01-15T13:30:47;1.90;99.90
20422;DHT22;10370;53.102;18.034;2024-01-15T13:36:10;1.90;99.90
20422;DHT22;10370;53.102;18.034;2024-01-15T13:41:33;1.90;99.90
20422;DHT22;10370;53.102;18.034;2024-01-15T13:46:56;1.90;99.90
20422;DHT22;10370;53.102;18.034;2024-01-15T13:52:19;1.90;99.90
20422;DHT22;10370;53.102;18.034;2024-01-15T13:57:43;1.80;99.90
20422;DHT22;10370;53.102;18.034;2024-01-15T14:03:06;1.50;99.90
20422;DHT22;10370;53.102;18.034;2024-01-15T14:08:29;1.40;99.90
20422;DHT22;10370;53.102;18.034;2024-01-15T14:13:52;1.40;99.90
20422;DHT22;10370;53.102;18.034;2024-01-15T14:19:15;1.40;99.90
20422;DHT22;10370;53.102;18.034;2024-01-15T14:24:38;1.40;99.90
20422;DHT22;10370;53.102;18.034;2024-01-15T14:30:02;1.50;99.90
20422;DHT22;10370;53.102;18.034;2024-01-15T14:35:26;1.50;99.90
20422;DHT22;10370;53.102;18.034;2024-01-15T14:40:49;1.50;99.90
20422;DHT22;10370;53.102;18.034;2024-01-15T14:46:12;1.50;99.90
20422;DHT22;10370;53.102;18.034;2024-01-15T14:51:35;1.40;99.90
20422;DHT22;10370;53.102;18.034;2024-01-15T14:56:58;1.40;99.90
20422;DHT22;10370;53.102;18.034;2024-01-15T15:02:22;1.20;99.90
20422;DHT22;10370;53.102;18.034;2024-01-15T15:07:45;1.00;99.90
20422;DHT22;10370;53.102;18.034;2024-01-15T15:13:08;0.90;99.90
20422;DHT22;10370;53.102;18.034;2024-01-15T15:18:32;0.90;99.90
20422;DHT22;10370;53.102;18.034;2024-01-15T15:23:55;0.80;99.90
20422;DHT22;10370;53.102;18.034;2024-01-15T15:29:19;0.80;99.90
20422;DHT22;10370;53.102;18.034;2024-01-15T15:34:42;0.80;99.90
20422;DHT22;10370;53.102;18.034;2024-01-15T15:40:05;0.70;99.90
20422;DHT22;10370;53.102;18.034;2024-01-15T15:45:33;0.70;99.90
20422;DHT22;10370;53.102;18.034;2024-01-15T15:50:56;0.70;99.90
20422;DHT22;10370;53.102;18.034;2024-01-15T15:56:19;0.60;99.90
20422;DHT22;10370;53.102;18.034;2024-01-15T16:01:42;0.50;99.90
20422;DHT22;10370;53.102;18.034;2024-01-15T16:07:05;0.40;99.90
20422;DHT22;10370;53.102;18.034;2024-01-15T16:12:32;0.30;99.90
20422;DHT22;10370;53.102;18.034;2024-01-15T16:17:55;0.30;99.90
20422;DHT22;10370;53.102;18.034;2024-01-15T16:23:38;0.20;99.90
20422;DHT22;10370;53.102;18.034;2024-01-15T16:29:18;0.20;99.90
20422;DHT22;10370;53.102;18.034;2024-01-15T16:34:41;0.20;99.90
20422;DHT22;10370;53.102;18.034;2024-01-15T16:40:05;0.20;99.90
20422;DHT22;10370;53.102;18.034;2024-01-15T16:45:28;0.20;99.90
20422;DHT22;10370;53.102;18.034;2024-01-15T16:50:51;0.20;99.90
20422;DHT22;10370;53.102;18.034;2024-01-15T16:56:15;0.10;99.90
20422;DHT22;10370;53.102;18.034;2024-01-15T17:01:38;0.20;99.90
20422;DHT22;10370;53.102;18.034;2024-01-15T17:07:01;0.20;99.90
20422;DHT22;10370;53.102;18.034;2024-01-15T17:12:24;0.20;99.90
20422;DHT22;10370;53.102;18.034;2024-01-15T17:17:47;0.20;99.90
20422;DHT22;10370;53.102;18.034;2024-01-15T17:23:10;0.10;99.90
20422;DHT22;10370;53.102;18.034;2024-01-15T17:28:32;0.20;99.90
20422;DHT22;10370;53.102;18.034;2024-01-15T17:33:55;0.10;99.90
20422;DHT22;10370;53.102;18.034;2024-01-15T17:39:21;0.10;99.90
20422;DHT22;10370;53.102;18.034;2024-01-15T17:44:44;0.10;99.90
20422;DHT22;10370;53.102;18.034;2024-01-15T17:50:07;0.00;99.90
20422;DHT22;10370;53.102;18.034;2024-01-15T17:55:30;0.00;99.90
20422;DHT22;10370;53.102;18.034;2024-01-15T18:00:53;0.00;99.90
20422;DHT22;10370;53.102;18.034;2024-01-15T18:06:16;0.00;99.90
20422;DHT22;10370;53.102;18.034;2024-01-15T18:11:39;0.00;99.90
20422;DHT22;10370;53.102;18.034;2024-01-15T18:17:02;0.00;99.90
20422;DHT22;10370;53.102;18.034;2024-01-15T18:22:24;-0.10;99.90
20422;DHT22;10370;53.102;18.034;2024-01-15T18:27:47;-0.10;99.90
20422;DHT22;10370;53.102;18.034;2024-01-15T18:33:10;-0.10;99.90
20422;DHT22;10370;53.102;18.034;2024-01-15T18:38:33;-0.10;99.90
20422;DHT22;10370;53.102;18.034;2024-01-15T18:43:56;-0.20;99.90
20422;DHT22;10370;53.102;18.034;2024-01-15T18:49:22;-0.40;99.90
20422;DHT22;10370;53.102;18.034;2024-01-15T18:54:45;-0.30;99.90
20422;DHT22;10370;53.102;18.034;2024-01-15T19:00:10;-0.40;99.90
20422;DHT22;10370;53.102;18.034;2024-01-15T19:05:33;-0.30;99.90
20422;DHT22;10370;53.102;18.034;2024-01-15T19:10:56;-0.40;99.90
20422;DHT22;10370;53.102;18.034;2024-01-15T19:16:19;-0.50;99.90
20422;DHT22;10370;53.102;18.034;2024-01-15T19:21:48;-0.50;99.90
20422;DHT22;10370;53.102;18.034;2024-01-15T19:27:12;-0.50;99.90
20422;DHT22;10370;53.102;18.034;2024-01-15T19:32:39;-0.50;99.90
20422;DHT22;10370;53.102;18.034;2024-01-15T19:38:04;-0.50;99.90
20422;DHT22;10370;53.102;18.034;2024-01-15T19:43:28;-0.50;99.90
20422;DHT22;10370;53.102;18.034;2024-01-15T19:48:51;-0.50;99.90
20422;DHT22;10370;53.102;18.034;2024-01-15T19:54:14;-0.50;99.90
20422;DHT22;10370;53.102;18.034;2024-01-15T19:59:37;-0.50;99.90
20422;DHT22;10370;53.102;18.034;2024-01-15T20:05:00;-0.60;99.90
20422;DHT22;10370;53.102;18.034;2024-01-15T20:10:26;-0.60;99.90
20422;DHT22;10370;53.102;18.034;2024-01-15T20:15:49;-0.60;99.90
20422;DHT22;10370;53.102;18.034;2024-01-15T20:21:12;-0.70;99.90
20422;DHT22;10370;53.102;18.034;2024-01-15T20:26:38;-0.70;99.90
20422;DHT22;10370;53.102;18.034;2024-01-15T20:32:01;-0.70;99.90
20422;DHT22;10370;53.102;18.034;2024-01-15T20:37:24;-0.70;99.90
20422;DHT22;10370;53.102;18.034;2024-01-15T20:42:48;-0.90;99.90
20422;DHT22;10370;53.102;18.034;2024-01-15T20:48:11;-0.90;99.90
20422;DHT22;10370;53.102;18.034;2024-01-15T20:53:35;-1.00;99.90
20422;DHT22;10370;53.102;18.034;2024-01-15T20:58:57;-1.00;99.90
20422;DHT22;10370;53.102;18.034;2024-01-15T21:04:21;-0.90;99.90
20422;DHT22;10370;53.102;18.034;2024-01-15T21:09:44;-0.90;99.90
20422;DHT22;10370;53.102;18.034;2024-01-15T21:15:08;-0.90;99.90
20422;DHT22;10370;53.102;18.034;2024-01-15T21:20:31;-0.90;99.90
20422;DHT22;10370;53.102;18.034;2024-01-15T21:25:54;-0.90;99.90
20422;DHT22;10370;53.102;18.034;2024-01-15T21:31:19;-0.90;99.90
20422;DHT22;10370;53.102;18.034;2024-01-15T21:36:42;-0.90;99.90
20422;DHT22;10370;53.102;18.034;2024-01-15T21:42:04;-0.90;99.90
20422;DHT22;10370;53.102;18.034;2024-01-15T21:47:27;-0.90;99.90
20422;DHT22;10370;53.102;18.034;2024-01-15T21:52:51;-1.00;99.90
20422;DHT22;10370;53.102;18.034;2024-01-15T21:58:13;-0.90;99.90
20422;DHT22;10370;53.102;18.034;2024-01-15T22:03:36;-0.90;99.90
20422;DHT22;10370;53.102;18.034;2024-01-15T22:08:59;-0.90;99.90
20422;DHT22;10370;53.102;18.034;2024-01-15T22:14:21;-0.90;99.90
20422;DHT22;10370;53.102;18.034;2024-01-15T22:19:47;-1.00;99.90
20422;DHT22;10370;53.102;18.034;2024-01-15T22:25:10;-1.00;99.90
20422;DHT22;10370;53.102;18.034;2024-01-15T22:30:34;-1.00;99.90
20422;DHT22;10370;53.102;18.034;2024-01-15T22:35:57;-1.10;99.90
20422;DHT22;10370;53.102;18.034;2024-01-15T22:41:20;-1.10;99.90
20422;DHT22;10370;53.102;18.034;2024-01-15T22:46:42;-1.10;99.90
20422;DHT22;10370;53.102;18.034;2024-01-15T22:52:05;-1.10;99.90
20422;DHT22;10370;53.102;18.034;2024-01-15T22:57:28;-1.10;99.90
20422;DHT22;10370;53.102;18.034;2024-01-15T23:02:50;-1.10;99.90
20422;DHT22;10370;53.102;18.034;2024-01-15T23:08:19;-1.10;99.90
20422;DHT22;10370;53.102;18.034;2024-01-15T23:13:45;-1.30;99.90
20422;DHT22;10370;53.102;18.034;2024-01-15T23:19:07;-1.30;99.90
20422;DHT22;10370;53.102;18.034;2024-01-15T23:24:35;-1.30;99.90
20422;DHT22;10370;53.102;18.034;2024-01-15T23:30:01;-1.40;99.90
20422;DHT22;10370;53.102;18.034;2024-01-15T23:35:26;-1.50;99.90
20422;DHT22;10370;53.102;18.034;2024-01-15T23:40:49;-1.60;99.90
20422;DHT22;10370;53.102;18.034;2024-01-15T23:46:13;-1.60;99.90
20422;DHT22;10370;53.102;18.034;2024-01-15T23:51:36;-1.70;99.90
20422;DHT22;10370;53.102;18.034;2024-01-15T23:56:59;-1.80;99.90
